Time;durP1;ratioP1;P1;durP2;ratioP2;P2;SDS_P1;SDS_P2;PMS_P1;PMS_P2;Temp;Humidity;BMP_temperature;BMP_pressure;BME280_temperature;BME280_humidity;BME280_pressure;Samples;Min_cycle;Max_cycle;Signal;HPM_P1;HPM_P2
2023/04/19 00:00:08;;;;;;;5.17;4.17;;;;;;;;;;628078;23;1005;-76
2023/04/19 00:00:23;;;;;;;4.50;4.03;;;;;;;;;;632001;23;1271;-76
2023/04/19 00:00:39;;;;;;;4.63;4.10;;;;;;;;;;630645;23;1375;-77
2023/04/19 00:00:56;;;;;;;4.75;3.97;;;;;;;;;;632283;23;867;-78
2023/04/19 00:01:12;;;;;;;4.93;3.90;;;;;;;;;;630765;23;1271;-76
2023/04/19 00:01:28;;;;;;;4.80;4.05;;;;;;;;;;627458;23;1316;-76
2023/04/19 00:01:43;;;;;;;4.65;4.15;;;;;;;;;;623254;23;1249;-76
2023/04/19 00:01:58;;;;;;;4.70;4.20;;;;;;;;;;617869;23;1367;-76
2023/04/19 00:02:15;;;;;;;4.50;4.10;;;;;;;;;;621024;23;999;-77
2023/04/19 00:02:32;;;;;;;4.38;3.97;;;;;;;;;;620982;23;1369;-77
2023/04/19 00:02:48;;;;;;;4.55;3.85;;;;;;;;;;617826;23;1281;-76
2023/04/19 00:03:05;;;;;;;4.95;4.00;;;;;;;;;;617027;23;1020;-75
2023/04/19 00:03:23;;;;;;;4.50;4.10;;;;;;;;;;622053;23;1384;-76
2023/04/19 00:03:38;;;;;;;4.13;3.72;;;;;;;;;;622751;23;1509;-77
2023/04/19 00:03:55;;;;;;;4.13;3.73;;;;;;;;;;622690;23;876;-77
2023/04/19 00:04:11;;;;;;;4.55;4.10;;;;;;;;;;619743;23;1212;-77
2023/04/19 00:04:27;;;;;;;4.78;4.18;;;;;;;;;;621285;23;1295;-77
2023/04/19 00:04:43;;;;;;;4.60;4.10;;;;;;;;;;621740;23;1320;-77
2023/04/19 00:04:59;;;;;;;4.40;4.00;;;;;;;;;;623879;23;1436;-77
2023/04/19 00:05:15;;;;;;;4.40;4.00;;;;;;;;;;626217;23;1287;-76
2023/04/19 00:05:31;;;;;;;4.50;4.10;;;;;;;;;;623418;23;1378;-76
2023/04/19 00:05:47;;;;;;;4.80;4.10;;;;;;;;;;623665;23;1442;-77
2023/04/19 00:06:24;;;;;;;4.72;4.00;;;;;;;;;;625952;23;1211;-77
2023/04/19 00:06:41;;;;;;;4.80;4.30;;;;;;;;;;624576;23;1361;-76
2023/04/19 00:07:17;;;;;;;4.72;4.18;;;;;;;;;;621911;23;1276;-76
2023/04/19 00:07:32;;;;;;;4.75;4.13;;;;;;;;;;626596;23;1433;-77
2023/04/19 00:08:08;;;;;;;4.82;4.00;;;;;;;;;;626432;23;1217;-76
2023/04/19 00:08:25;;;;;;;4.35;3.88;;;;;;;;;;619407;23;1376;-76
2023/04/19 00:08:41;;;;;;;4.45;4.00;;;;;;;;;;620091;23;1345;-76
2023/04/19 00:08:56;;;;;;;4.75;4.28;;;;;;;;;;621991;23;1300;-76
2023/04/19 00:09:12;;;;;;;4.82;4.32;;;;;;;;;;622578;23;923;-76
2023/04/19 00:09:28;;;;;;;4.67;4.20;;;;;;;;;;623640;23;1474;-76
2023/04/19 00:09:43;;;;;;;4.65;4.25;;;;;;;;;;624635;23;1210;-76
2023/04/19 00:09:59;;;;;;;4.73;4.33;;;;;;;;;;626154;23;831;-76
2023/04/19 00:10:14;;;;;;;4.57;4.18;;;;;;;;;;624658;23;1221;-76
2023/04/19 00:10:30;;;;;;;4.43;4.03;;;;;;;;;;623291;23;1671;-76
2023/04/19 00:10:45;;;;;;;4.50;4.10;;;;;;;;;;623799;23;835;-77
2023/04/19 00:11:01;;;;;;;4.80;4.30;;;;;;;;;;622714;23;1232;-76
2023/04/19 00:11:17;;;;;;;5.23;4.37;;;;;;;;;;619152;23;1230;-75
2023/04/19 00:11:32;;;;;;;5.05;4.10;;;;;;;;;;619721;23;1407;-76
2023/04/19 00:11:49;;;;;;;5.10;4.03;;;;;;;;;;621918;23;804;-76
2023/04/19 00:12:04;;;;;;;5.00;4.30;;;;;;;;;;622244;23;1344;-76
2023/04/19 00:12:20;;;;;;;4.60;4.20;;;;;;;;;;623278;23;1271;-76
2023/04/19 00:12:35;;;;;;;4.60;4.20;;;;;;;;;;624965;23;1331;-77
2023/04/19 00:12:51;;;;;;;4.63;4.22;;;;;;;;;;626311;23;1309;-77
2023/04/19 00:13:07;;;;;;;4.72;4.22;;;;;;;;;;626295;23;1297;-76
2023/04/19 00:13:22;;;;;;;4.80;4.20;;;;;;;;;;623000;23;1296;-77
2023/04/19 00:13:38;;;;;;;4.65;4.22;;;;;;;;;;623077;23;891;-77
2023/04/19 00:13:54;;;;;;;4.50;4.10;;;;;;;;;;622826;23;1209;-77
2023/04/19 00:14:09;;;;;;;4.30;3.85;;;;;;;;;;619316;23;1237;-76
2023/04/19 00:14:25;;;;;;;4.20;3.80;;;;;;;;;;618877;23;1424;-77
2023/04/19 00:14:41;;;;;;;4.30;3.90;;;;;;;;;;618597;23;1315;-76
2023/04/19 00:14:57;;;;;;;4.43;4.03;;;;;;;;;;619320;23;824;-76
2023/04/19 00:15:13;;;;;;;4.90;4.40;;;;;;;;;;620553;23;1337;-77
2023/04/19 00:15:28;;;;;;;4.65;4.25;;;;;;;;;;620502;23;1359;-76
2023/04/19 00:15:44;;;;;;;4.35;3.95;;;;;;;;;;620872;23;1070;-76
2023/04/19 00:15:59;;;;;;;4.30;3.90;;;;;;;;;;621626;23;828;-76
2023/04/19 00:16:15;;;;;;;4.22;3.83;;;;;;;;;;621000;23;1388;-76
2023/04/19 00:16:31;;;;;;;4.35;3.95;;;;;;;;;;620484;23;1476;-78
2023/04/19 00:16:47;;;;;;;4.60;4.20;;;;;;;;;;622844;23;792;-76
2023/04/19 00:17:02;;;;;;;4.47;4.03;;;;;;;;;;623068;23;863;-77
2023/04/19 00:17:18;;;;;;;4.68;4.10;;;;;;;;;;622462;23;1273;-77
2023/04/19 00:17:34;;;;;;;5.20;4.10;;;;;;;;;;621490;23;1893;-76
2023/04/19 00:17:50;;;;;;;4.90;3.90;;;;;;;;;;620011;23;1314;-76
2023/04/19 00:18:06;;;;;;;4.30;3.90;;;;;;;;;;616714;23;1208;-76
2023/04/19 00:18:21;;;;;;;4.30;3.90;;;;;;;;;;621185;23;1411;-76
2023/04/19 00:18:37;;;;;;;4.20;3.80;;;;;;;;;;623249;23;852;-76
2023/04/19 00:18:53;;;;;;;4.40;4.00;;;;;;;;;;620009;23;1232;-76
2023/04/19 00:19:09;;;;;;;4.40;4.00;;;;;;;;;;619627;23;1349;-76
2023/04/19 00:19:24;;;;;;;4.40;4.00;;;;;;;;;;621809;23;1367;-76
2023/04/19 00:19:40;;;;;;;4.50;4.10;;;;;;;;;;622055;23;796;-77
2023/04/19 00:19:56;;;;;;;4.40;4.00;;;;;;;;;;619284;23;1213;-77
2023/04/19 00:20:12;;;;;;;4.65;4.25;;;;;;;;;;618830;23;1327;-76
2023/04/19 00:20:27;;;;;;;4.60;4.20;;;;;;;;;;619291;23;1272;-77
2023/04/19 00:20:43;;;;;;;4.47;4.05;;;;;;;;;;621033;23;832;-77
2023/04/19 00:20:59;;;;;;;4.50;4.10;;;;;;;;;;622969;23;1260;-76
2023/04/19 00:21:15;;;;;;;4.53;4.13;;;;;;;;;;623705;23;1027;-77
2023/04/19 00:21:31;;;;;;;4.60;4.20;;;;;;;;;;622483;23;1276;-75
2023/04/19 00:21:47;;;;;;;4.63;4.20;;;;;;;;;;620457;23;1272;-76
2023/04/19 00:22:02;;;;;;;4.68;4.18;;;;;;;;;;619698;23;1439;-76
2023/04/19 00:22:18;;;;;;;5.63;4.43;;;;;;;;;;618821;23;1094;-76
2023/04/19 00:22:34;;;;;;;5.35;4.50;;;;;;;;;;615728;23;1221;-76
2023/04/19 00:22:49;;;;;;;4.63;4.13;;;;;;;;;;616164;23;1386;-76
2023/04/19 00:23:05;;;;;;;4.60;3.95;;;;;;;;;;619689;23;1131;-77
2023/04/19 00:23:21;;;;;;;4.35;3.90;;;;;;;;;;620187;23;872;-76
2023/04/19 00:23:36;;;;;;;4.40;4.00;;;;;;;;;;622925;23;1262;-76
2023/04/19 00:23:52;;;;;;;4.90;4.40;;;;;;;;;;625521;23;1358;-77
2023/04/19 00:24:08;;;;;;;4.78;4.28;;;;;;;;;;625233;23;1307;-77
2023/04/19 00:24:24;;;;;;;4.45;4.05;;;;;;;;;;626022;23;1657;-76
2023/04/19 00:24:40;;;;;;;4.40;4.00;;;;;;;;;;625132;23;1790;-77
2023/04/19 00:24:56;;;;;;;4.40;4.00;;;;;;;;;;617792;23;1295;-77
2023/04/19 00:25:11;;;;;;;4.60;4.20;;;;;;;;;;618798;23;1358;-76
2023/04/19 00:25:28;;;;;;;4.50;4.10;;;;;;;;;;618771;23;1228;-76
2023/04/19 00:25:48;;;;;;;4.65;4.25;;;;;;;;;;619496;23;1359;-77
2023/04/19 00:26:04;;;;;;;4.65;4.25;;;;;;;;;;622827;23;1311;-76
2023/04/19 00:26:20;;;;;;;4.55;4.13;;;;;;;;;;622923;23;879;-76
2023/04/19 00:26:36;;;;;;;5.07;4.20;;;;;;;;;;623219;23;1331;-76
2023/04/19 00:26:52;;;;;;;4.57;4.07;;;;;;;;;;622775;23;1367;-76
2023/04/19 00:27:07;;;;;;;4.73;4.30;;;;;;;;;;622540;23;811;-76
2023/04/19 00:27:23;;;;;;;5.00;4.50;;;;;;;;;;619785;23;1448;-77
2023/04/19 00:27:39;;;;;;;4.78;4.25;;;;;;;;;;619096;23;1130;-76
2023/04/19 00:27:54;;;;;;;4.50;4.03;;;;;;;;;;618510;23;1200;-77
2023/04/19 00:28:10;;;;;;;4.63;4.23;;;;;;;;;;616438;23;1349;-77
2023/04/19 00:28:26;;;;;;;4.90;4.32;;;;;;;;;;617785;23;816;-77
2023/04/19 00:28:41;;;;;;;5.03;4.25;;;;;;;;;;620362;23;1327;-76
2023/04/19 00:28:57;;;;;;;4.70;4.30;;;;;;;;;;618966;23;1257;-76
2023/04/19 00:29:13;;;;;;;4.53;4.13;;;;;;;;;;619180;23;1351;-77
2023/04/19 00:29:28;;;;;;;4.47;4.07;;;;;;;;;;619382;23;824;-77
2023/04/19 00:29:44;;;;;;;4.63;4.20;;;;;;;;;;618032;23;1315;-77
2023/04/19 00:30:00;;;;;;;4.80;4.30;;;;;;;;;;615410;23;1459;-77
2023/04/19 00:30:16;;;;;;;4.60;4.20;;;;;;;;;;618310;23;1268;-75
2023/04/19 00:30:52;;;;;;;4.47;4.07;;;;;;;;;;619554;23;832;-76
2023/04/19 00:31:08;;;;;;;4.63;4.20;;;;;;;;;;623670;23;1273;-76
2023/04/19 00:31:23;;;;;;;4.82;4.32;;;;;;;;;;625470;23;823;-76
2023/04/19 00:32:20;;;;;;;4.63;4.18;;;;;;;;;;624122;23;1264;-77
2023/04/19 00:32:36;;;;;;;4.60;4.20;;;;;;;;;;623304;23;1341;-75
2023/04/19 00:32:51;;;;;;;4.78;4.38;;;;;;;;;;620117;23;1394;-76
2023/04/19 00:33:11;;;;;;;5.10;4.60;;;;;;;;;;623624;23;811;-77
2023/04/19 00:33:27;;;;;;;4.90;4.45;;;;;;;;;;625422;23;898;-76
2023/04/19 00:33:42;;;;;;;4.70;4.20;;;;;;;;;;625332;23;1212;-76
2023/04/19 00:33:58;;;;;;;4.87;4.37;;;;;;;;;;625643;23;816;-76
2023/04/19 00:34:13;;;;;;;4.90;4.40;;;;;;;;;;625407;23;1030;-76
2023/04/19 00:34:29;;;;;;;5.05;4.50;;;;;;;;;;623900;23;1375;-76
2023/04/19 00:34:46;;;;;;;5.80;4.75;;;;;;;;;;626195;23;1522;-76
2023/04/19 00:35:01;;;;;;;5.85;4.70;;;;;;;;;;627034;23;1012;-76
2023/04/19 00:35:17;;;;;;;5.90;4.70;;;;;;;;;;624330;23;1156;-76
2023/04/19 00:35:33;;;;;;;5.22;4.65;;;;;;;;;;621633;23;1142;-76
2023/04/19 00:35:48;;;;;;;5.10;4.68;;;;;;;;;;621368;23;1235;-77
2023/04/19 00:36:04;;;;;;;5.27;4.77;;;;;;;;;;622246;23;911;-76
2023/04/19 00:36:20;;;;;;;5.35;4.85;;;;;;;;;;620455;23;1198;-76
2023/04/19 00:36:36;;;;;;;5.22;4.72;;;;;;;;;;619573;23;1282;-76
2023/04/19 00:36:52;;;;;;;5.10;4.57;;;;;;;;;;619099;23;1271;-76
2023/04/19 00:37:08;;;;;;;5.32;4.72;;;;;;;;;;619459;23;1386;-76
2023/04/19 00:37:24;;;;;;;5.20;4.70;;;;;;;;;;618638;23;1490;-76
2023/04/19 00:37:39;;;;;;;5.07;4.57;;;;;;;;;;619526;23;1971;-77
2023/04/19 00:37:55;;;;;;;5.15;4.60;;;;;;;;;;620539;23;1012;-76
2023/04/19 00:38:10;;;;;;;5.40;4.90;;;;;;;;;;622307;23;1260;-76
2023/04/19 00:38:26;;;;;;;5.10;4.60;;;;;;;;;;621776;23;1417;-76
2023/04/19 00:38:42;;;;;;;5.32;4.45;;;;;;;;;;621533;23;1329;-76
2023/04/19 00:38:58;;;;;;;5.17;4.50;;;;;;;;;;622043;23;1299;-76
2023/04/19 00:39:14;;;;;;;5.03;4.55;;;;;;;;;;623019;23;1343;-76
2023/04/19 00:39:30;;;;;;;5.07;4.57;;;;;;;;;;625230;23;1378;-76
2023/04/19 00:39:46;;;;;;;5.18;4.53;;;;;;;;;;624879;23;827;-77
2023/04/19 00:40:03;;;;;;;5.05;4.40;;;;;;;;;;624699;23;898;-76
2023/04/19 00:40:19;;;;;;;5.00;4.50;;;;;;;;;;624251;23;1436;-76
2023/04/19 00:40:36;;;;;;;5.38;4.82;;;;;;;;;;624812;23;840;-76
2023/04/19 00:40:51;;;;;;;5.30;4.80;;;;;;;;;;625507;23;1381;-77
2023/04/19 00:41:07;;;;;;;5.13;4.63;;;;;;;;;;624103;23;1374;-76
2023/04/19 00:41:23;;;;;;;5.50;5.00;;;;;;;;;;623654;23;1109;-77
2023/04/19 00:41:39;;;;;;;5.57;4.97;;;;;;;;;;622144;23;1186;-76
2023/04/19 00:41:56;;;;;;;5.23;4.73;;;;;;;;;;621518;23;1284;-76
2023/04/19 00:42:11;;;;;;;5.50;4.97;;;;;;;;;;622148;23;835;-77
2023/04/19 00:42:27;;;;;;;5.72;5.13;;;;;;;;;;621096;23;1316;-76
2023/04/19 00:42:43;;;;;;;5.30;4.78;;;;;;;;;;623947;23;1324;-76
2023/04/19 00:42:59;;;;;;;5.10;4.60;;;;;;;;;;620392;23;1228;-76
2023/04/19 00:43:18;;;;;;;5.38;4.70;;;;;;;;;;621118;23;1330;-75
2023/04/19 00:43:34;;;;;;;5.20;4.70;;;;;;;;;;622066;23;870;-75
2023/04/19 00:43:50;;;;;;;5.30;4.80;;;;;;;;;;622841;23;1104;-76
2023/04/19 00:44:08;;;;;;;5.05;4.60;;;;;;;;;;625018;23;910;-76
2023/04/19 00:44:24;;;;;;;5.20;4.57;;;;;;;;;;625373;23;866;-77
2023/04/19 00:44:39;;;;;;;6.00;4.93;;;;;;;;;;621421;23;1405;-74
2023/04/19 00:44:55;;;;;;;5.95;4.97;;;;;;;;;;623898;23;760;-76
2023/04/19 00:45:11;;;;;;;5.38;4.82;;;;;;;;;;623496;23;1165;-77
2023/04/19 00:45:27;;;;;;;5.30;4.80;;;;;;;;;;621034;23;1208;-76
2023/04/19 00:45:43;;;;;;;5.40;4.90;;;;;;;;;;622038;23;1208;-75
2023/04/19 00:45:59;;;;;;;5.53;4.93;;;;;;;;;;619425;23;1291;-76
2023/04/19 00:46:15;;;;;;;5.57;4.90;;;;;;;;;;621757;23;1383;-76
2023/04/19 00:46:31;;;;;;;5.40;4.87;;;;;;;;;;622198;23;1307;-76
2023/04/19 00:46:47;;;;;;;5.40;4.90;;;;;;;;;;619313;23;1288;-76
2023/04/19 00:48:04;;;;;;;5.40;4.90;;;;;;;;;;622071;23;1317;-77
2023/04/19 00:48:19;;;;;;;5.20;4.70;;;;;;;;;;624930;23;1191;-75
2023/04/19 00:48:35;;;;;;;5.30;4.80;;;;;;;;;;627054;23;1713;-75
2023/04/19 00:48:54;;;;;;;5.40;4.80;;;;;;;;;;627361;23;1340;-76
2023/04/19 00:49:09;;;;;;;5.30;4.80;;;;;;;;;;624422;23;1200;-76
2023/04/19 00:49:26;;;;;;;5.20;4.70;;;;;;;;;;625929;23;804;-77
2023/04/19 00:49:42;;;;;;;5.00;4.60;;;;;;;;;;621660;23;1280;-76
2023/04/19 00:49:58;;;;;;;4.97;4.57;;;;;;;;;;621847;23;1492;-76
2023/04/19 00:50:14;;;;;;;5.03;4.53;;;;;;;;;;618455;23;1343;-76
2023/04/19 00:50:30;;;;;;;5.32;4.70;;;;;;;;;;620034;23;1127;-76
2023/04/19 00:50:46;;;;;;;5.60;4.70;;;;;;;;;;619926;23;1460;-77
2023/04/19 00:51:01;;;;;;;5.53;4.70;;;;;;;;;;621828;23;828;-75
2023/04/19 00:51:17;;;;;;;5.60;4.85;;;;;;;;;;624649;23;1461;-76
2023/04/19 00:51:33;;;;;;;5.22;4.68;;;;;;;;;;624190;23;1410;-76
2023/04/19 00:51:52;;;;;;;5.05;4.55;;;;;;;;;;622151;23;1153;-76
2023/04/19 00:52:08;;;;;;;5.70;4.50;;;;;;;;;;623367;23;1253;-77
2023/04/19 00:52:24;;;;;;;5.45;4.50;;;;;;;;;;621481;23;1477;-77
2023/04/19 00:52:40;;;;;;;5.20;4.70;;;;;;;;;;619099;23;1646;-76
2023/04/19 00:52:56;;;;;;;5.22;4.72;;;;;;;;;;619331;23;1364;-77
2023/04/19 00:53:12;;;;;;;5.00;4.50;;;;;;;;;;618329;23;1484;-77
2023/04/19 00:53:28;;;;;;;4.93;4.45;;;;;;;;;;617758;23;1303;-76
2023/04/19 00:53:44;;;;;;;5.63;4.90;;;;;;;;;;618323;23;816;-76
2023/04/19 00:54:02;;;;;;;5.32;4.68;;;;;;;;;;617282;23;1108;-76
2023/04/19 00:54:19;;;;;;;5.00;4.50;;;;;;;;;;621981;23;1347;-76
2023/04/19 00:54:35;;;;;;;5.07;4.30;;;;;;;;;;624720;23;839;-76
2023/04/19 00:54:52;;;;;;;5.03;4.30;;;;;;;;;;625007;23;891;-76
2023/04/19 00:55:08;;;;;;;5.18;4.68;;;;;;;;;;623849;23;1137;-76
2023/04/19 00:55:24;;;;;;;5.15;4.65;;;;;;;;;;626736;23;1246;-76
2023/04/19 00:55:39;;;;;;;5.00;4.50;;;;;;;;;;624307;23;1039;-76
2023/04/19 00:55:59;;;;;;;4.90;4.40;;;;;;;;;;623739;23;1270;-76
2023/04/19 00:56:16;;;;;;;5.35;4.55;;;;;;;;;;625009;23;1299;-76
2023/04/19 00:56:33;;;;;;;5.03;4.53;;;;;;;;;;627238;23;871;-76
2023/04/19 00:56:50;;;;;;;4.88;4.38;;;;;;;;;;623809;23;1393;-75
2023/04/19 00:57:05;;;;;;;5.10;4.60;;;;;;;;;;622919;23;1361;-76
2023/04/19 00:57:21;;;;;;;5.25;4.75;;;;;;;;;;618894;23;1378;-77
2023/04/19 00:57:40;;;;;;;5.00;4.50;;;;;;;;;;615868;23;1943;-77
2023/04/19 00:57:56;;;;;;;5.10;4.60;;;;;;;;;;615516;23;1375;-76
2023/04/19 00:58:11;;;;;;;5.38;4.60;;;;;;;;;;615801;23;1498;-76
2023/04/19 00:58:30;;;;;;;5.70;4.82;;;;;;;;;;617994;23;1346;-76
2023/04/19 00:58:46;;;;;;;5.28;4.75;;;;;;;;;;619251;23;1423;-76
2023/04/19 00:59:02;;;;;;;5.25;4.75;;;;;;;;;;621209;23;1327;-76
2023/04/19 00:59:18;;;;;;;5.43;4.93;;;;;;;;;;618316;23;1353;-78
2023/04/19 00:59:34;;;;;;;5.63;5.10;;;;;;;;;;618372;23;1390;-77
2023/04/19 00:59:50;;;;;;;5.75;5.15;;;;;;;;;;618719;23;998;-76
2023/04/19 01:00:08;;;;;;;5.63;4.97;;;;;;;;;;619024;23;923;-76
2023/04/19 01:00:24;;;;;;;5.88;4.95;;;;;;;;;;621539;23;1256;-76
2023/04/19 01:00:39;;;;;;;5.38;4.85;;;;;;;;;;621285;23;1407;-76
2023/04/19 01:00:55;;;;;;;5.57;4.97;;;;;;;;;;621382;23;1465;-76
2023/04/19 01:01:11;;;;;;;5.45;4.95;;;;;;;;;;622237;23;807;-75
2023/04/19 01:01:27;;;;;;;5.37;4.87;;;;;;;;;;620956;23;1533;-76
2023/04/19 01:01:44;;;;;;;5.38;4.85;;;;;;;;;;620537;23;1340;-76
2023/04/19 01:02:00;;;;;;;5.63;4.78;;;;;;;;;;621688;23;1452;-76
2023/04/19 01:02:15;;;;;;;5.45;4.85;;;;;;;;;;619710;23;1433;-76
2023/04/19 01:02:31;;;;;;;5.30;4.80;;;;;;;;;;619246;23;977;-77
2023/04/19 01:02:47;;;;;;;5.20;4.70;;;;;;;;;;620180;23;1256;-75
2023/04/19 01:03:03;;;;;;;5.70;4.90;;;;;;;;;;615334;23;1312;-77
2023/04/19 01:03:19;;;;;;;5.97;5.03;;;;;;;;;;615914;23;1437;-76
2023/04/19 01:03:35;;;;;;;6.18;5.20;;;;;;;;;;616036;23;825;-76
2023/04/19 01:03:54;;;;;;;6.43;5.13;;;;;;;;;;613315;23;1311;-76
2023/04/19 01:04:09;;;;;;;5.88;5.20;;;;;;;;;;618952;23;1516;-76
2023/04/19 01:04:25;;;;;;;5.90;5.30;;;;;;;;;;616834;23;1296;-76
2023/04/19 01:04:41;;;;;;;5.47;4.93;;;;;;;;;;618477;23;1387;-76
2023/04/19 01:04:57;;;;;;;5.82;5.22;;;;;;;;;;615931;23;1345;-76
2023/04/19 01:05:13;;;;;;;6.40;5.60;;;;;;;;;;616563;23;1229;-76
2023/04/19 01:05:29;;;;;;;6.10;5.50;;;;;;;;;;615954;23;1277;-76
2023/04/19 01:05:45;;;;;;;6.13;5.53;;;;;;;;;;615820;23;1510;-76
2023/04/19 01:06:00;;;;;;;5.75;5.25;;;;;;;;;;614947;23;1185;-77
2023/04/19 01:06:16;;;;;;;5.43;4.93;;;;;;;;;;615146;23;1221;-76
2023/04/19 01:06:34;;;;;;;5.60;5.10;;;;;;;;;;614977;23;1277;-76
2023/04/19 01:06:50;;;;;;;5.78;5.20;;;;;;;;;;617655;23;1454;-78
2023/04/19 01:07:06;;;;;;;6.00;5.40;;;;;;;;;;617900;23;1477;-77
2023/04/19 01:07:21;;;;;;;5.87;5.37;;;;;;;;;;621523;23;1316;-77
2023/04/19 01:07:37;;;;;;;5.88;5.38;;;;;;;;;;624879;23;1367;-77
2023/04/19 01:07:53;;;;;;;5.85;5.35;;;;;;;;;;624760;23;1378;-76
2023/04/19 01:08:09;;;;;;;5.80;5.30;;;;;;;;;;619909;23;1346;-76
2023/04/19 01:08:24;;;;;;;5.82;5.32;;;;;;;;;;621646;23;830;-75
2023/04/19 01:08:40;;;;;;;5.82;5.32;;;;;;;;;;617970;23;1216;-76
2023/04/19 01:08:56;;;;;;;6.10;5.50;;;;;;;;;;614895;23;1181;-76
2023/04/19 01:09:12;;;;;;;5.88;5.28;;;;;;;;;;614975;23;1245;-76
2023/04/19 01:09:27;;;;;;;5.63;5.13;;;;;;;;;;614704;23;1337;-78
2023/04/19 01:09:44;;;;;;;6.22;5.63;;;;;;;;;;618761;23;1348;-76
2023/04/19 01:10:02;;;;;;;6.90;5.72;;;;;;;;;;619283;23;844;-76
2023/04/19 01:10:18;;;;;;;6.32;5.40;;;;;;;;;;615790;23;1287;-76
2023/04/19 01:10:34;;;;;;;6.18;5.57;;;;;;;;;;618672;23;1317;-76
2023/04/19 01:10:50;;;;;;;5.90;5.32;;;;;;;;;;621604;23;1306;-76
2023/04/19 01:11:07;;;;;;;5.60;5.10;;;;;;;;;;623115;23;796;-76
2023/04/19 01:11:23;;;;;;;6.15;5.55;;;;;;;;;;622658;23;1469;-75
2023/04/19 01:11:39;;;;;;;6.43;5.63;;;;;;;;;;625417;23;831;-76
2023/04/19 01:11:55;;;;;;;6.43;5.75;;;;;;;;;;623439;23;1411;-76
2023/04/19 01:12:10;;;;;;;6.93;6.23;;;;;;;;;;621898;23;1297;-76
2023/04/19 01:12:26;;;;;;;6.95;6.25;;;;;;;;;;623589;23;1604;-76
2023/04/19 01:12:42;;;;;;;6.80;6.05;;;;;;;;;;619986;23;1311;-76
2023/04/19 01:12:58;;;;;;;6.77;6.07;;;;;;;;;;621862;23;1018;-76
2023/04/19 01:13:13;;;;;;;6.50;5.90;;;;;;;;;;622915;23;1774;-76
2023/04/19 01:13:29;;;;;;;6.77;6.10;;;;;;;;;;624857;23;978;-75
2023/04/19 01:13:45;;;;;;;6.97;6.30;;;;;;;;;;625188;23;930;-76
2023/04/19 01:14:00;;;;;;;7.45;6.47;;;;;;;;;;628430;23;1054;-75
2023/04/19 01:14:16;;;;;;;7.60;6.70;;;;;;;;;;630391;23;804;-76
2023/04/19 01:14:31;;;;;;;7.50;6.70;;;;;;;;;;627334;23;1398;-76
2023/04/19 01:14:47;;;;;;;7.33;6.60;;;;;;;;;;629444;23;787;-76
2023/04/19 01:15:04;;;;;;;7.25;6.55;;;;;;;;;;630519;23;843;-76
2023/04/19 01:15:19;;;;;;;7.22;6.55;;;;;;;;;;632164;23;879;-77
2023/04/19 01:15:35;;;;;;;7.28;6.57;;;;;;;;;;630907;23;780;-76
2023/04/19 01:15:51;;;;;;;7.20;6.50;;;;;;;;;;630648;23;787;-76
2023/04/19 01:16:07;;;;;;;6.78;6.18;;;;;;;;;;627570;23;1332;-76
2023/04/19 01:16:25;;;;;;;7.28;6.60;;;;;;;;;;624593;23;1287;-75
2023/04/19 01:16:41;;;;;;;7.53;6.82;;;;;;;;;;627188;23;1455;-76
2023/04/19 01:16:57;;;;;;;7.40;6.70;;;;;;;;;;623787;23;1270;-76
2023/04/19 01:17:13;;;;;;;7.37;6.67;;;;;;;;;;624987;23;905;-76
2023/04/19 01:17:31;;;;;;;8.13;6.68;;;;;;;;;;621198;23;1261;-76
2023/04/19 01:17:47;;;;;;;7.65;6.43;;;;;;;;;;621714;23;1962;-78
2023/04/19 01:18:36;;;;;;;7.00;6.30;;;;;;;;;;619423;23;1439;-77
2023/04/19 01:18:52;;;;;;;7.63;6.93;;;;;;;;;;626290;23;914;-77
2023/04/19 01:19:10;;;;;;;7.65;6.95;;;;;;;;;;625055;23;1211;-77
2023/04/19 01:19:26;;;;;;;7.22;6.53;;;;;;;;;;623899;23;930;-76
2023/04/19 01:19:41;;;;;;;7.30;6.60;;;;;;;;;;622618;23;1370;-76
2023/04/19 01:20:37;;;;;;;7.43;6.73;;;;;;;;;;622703;23;1094;-77
2023/04/19 01:20:56;;;;;;;7.35;6.60;;;;;;;;;;624186;23;1130;-75
2023/04/19 01:21:12;;;;;;;7.20;6.50;;;;;;;;;;627351;23;1420;-77
2023/04/19 01:21:29;;;;;;;7.43;6.63;;;;;;;;;;624448;23;1372;-77
2023/04/19 01:21:45;;;;;;;7.53;6.72;;;;;;;;;;627155;23;888;-76
2023/04/19 01:22:02;;;;;;;7.22;6.53;;;;;;;;;;623793;23;1368;-77
2023/04/19 01:22:21;;;;;;;7.53;6.82;;;;;;;;;;620886;23;1313;-76
2023/04/19 01:22:37;;;;;;;7.95;7.15;;;;;;;;;;617942;23;1406;-76
2023/04/19 01:22:53;;;;;;;7.63;6.93;;;;;;;;;;615640;23;1004;-76
2023/04/19 01:23:10;;;;;;;7.78;7.07;;;;;;;;;;616438;23;1205;-76
2023/04/19 01:23:26;;;;;;;8.18;7.38;;;;;;;;;;615872;23;1229;-76
2023/04/19 01:23:42;;;;;;;7.70;7.00;;;;;;;;;;615896;23;871;-76
2023/04/19 01:23:57;;;;;;;7.47;6.78;;;;;;;;;;616289;23;1362;-77
2023/04/19 01:24:13;;;;;;;7.50;6.80;;;;;;;;;;619084;23;1319;-76
2023/04/19 01:24:35;;;;;;;7.53;6.83;;;;;;;;;;619723;23;1142;-76
2023/04/19 01:24:51;;;;;;;8.35;7.55;;;;;;;;;;620488;23;1370;-76
2023/04/19 01:25:07;;;;;;;8.23;7.43;;;;;;;;;;620409;23;1302;-76
2023/04/19 01:25:23;;;;;;;8.10;7.30;;;;;;;;;;620401;23;1399;-77
2023/04/19 01:25:38;;;;;;;8.05;7.25;;;;;;;;;;618883;23;1313;-77
2023/04/19 01:25:56;;;;;;;7.90;7.10;;;;;;;;;;619376;23;895;-77
2023/04/19 01:26:12;;;;;;;7.95;7.15;;;;;;;;;;618417;23;1206;-76
2023/04/19 01:26:27;;;;;;;8.18;7.38;;;;;;;;;;619146;23;777;-77
2023/04/19 01:26:43;;;;;;;8.55;7.72;;;;;;;;;;620069;23;832;-75
2023/04/19 01:27:19;;;;;;;8.60;7.80;;;;;;;;;;621310;23;1244;-77
2023/04/19 01:27:35;;;;;;;7.93;7.20;;;;;;;;;;621973;23;1595;-76
2023/04/19 01:27:51;;;;;;;8.25;7.45;;;;;;;;;;620535;23;1267;-75
2023/04/19 01:28:06;;;;;;;8.50;7.65;;;;;;;;;;620485;23;1201;-76
2023/04/19 01:28:22;;;;;;;8.50;7.70;;;;;;;;;;619561;23;1216;-76
2023/04/19 01:28:58;;;;;;;8.63;7.83;;;;;;;;;;615953;23;1358;-77
2023/04/19 01:29:14;;;;;;;9.20;8.30;;;;;;;;;;618812;23;1031;-76
2023/04/19 01:29:30;;;;;;;9.07;8.18;;;;;;;;;;617711;23;1380;-76
2023/04/19 01:29:46;;;;;;;9.10;8.20;;;;;;;;;;617240;23;1239;-77
2023/04/19 01:30:02;;;;;;;8.82;7.97;;;;;;;;;;616201;23;1399;-76
2023/04/19 01:30:20;;;;;;;8.55;7.70;;;;;;;;;;617142;23;1361;-75
2023/04/19 01:30:39;;;;;;;8.70;7.90;;;;;;;;;;620536;23;1267;-76
2023/04/19 01:30:58;;;;;;;9.40;8.50;;;;;;;;;;621849;23;868;-77
2023/04/19 01:31:13;;;;;;;8.68;7.88;;;;;;;;;;622272;23;1303;-76
2023/04/19 01:31:29;;;;;;;8.65;7.85;;;;;;;;;;621758;23;1295;-76
2023/04/19 01:31:50;;;;;;;8.80;8.00;;;;;;;;;;622287;23;1384;-76
2023/04/19 01:32:05;;;;;;;8.90;8.05;;;;;;;;;;624606;23;1407;-76
2023/04/19 01:32:21;;;;;;;9.48;8.18;;;;;;;;;;624890;23;1346;-75
2023/04/19 01:32:37;;;;;;;8.60;7.80;;;;;;;;;;626209;23;947;-76
2023/04/19 01:32:59;;;;;;;8.37;7.60;;;;;;;;;;622792;23;1315;-77
2023/04/19 01:33:15;;;;;;;8.70;7.90;;;;;;;;;;622655;23;1378;-75
2023/04/19 01:33:31;;;;;;;8.77;7.93;;;;;;;;;;625296;23;1310;-75
2023/04/19 01:33:47;;;;;;;8.43;7.70;;;;;;;;;;622003;23;1319;-76
2023/04/19 01:34:02;;;;;;;8.10;7.30;;;;;;;;;;624783;23;839;-77
2023/04/19 01:34:24;;;;;;;8.15;7.35;;;;;;;;;;620239;23;1236;-76
2023/04/19 01:34:40;;;;;;;8.82;8.00;;;;;;;;;;618466;23;1292;-76
2023/04/19 01:34:56;;;;;;;8.88;7.97;;;;;;;;;;621369;23;820;-76
2023/04/19 01:35:12;;;;;;;8.98;8.07;;;;;;;;;;623848;23;1460;-76
2023/04/19 01:35:28;;;;;;;9.05;8.25;;;;;;;;;;623336;23;1335;-76
2023/04/19 01:35:43;;;;;;;9.20;8.33;;;;;;;;;;623005;23;1248;-76
2023/04/19 01:35:59;;;;;;;9.23;8.32;;;;;;;;;;621501;23;1192;-77
2023/04/19 01:36:15;;;;;;;9.27;8.37;;;;;;;;;;622650;23;1236;-75
2023/04/19 01:36:30;;;;;;;9.05;8.18;;;;;;;;;;621847;23;1360;-76
2023/04/19 01:36:46;;;;;;;8.93;8.13;;;;;;;;;;622379;23;1407;-76
2023/04/19 01:37:02;;;;;;;9.45;8.55;;;;;;;;;;616082;23;1348;-75
2023/04/19 01:37:18;;;;;;;9.15;8.25;;;;;;;;;;615828;23;776;-76
2023/04/19 01:37:36;;;;;;;8.88;7.97;;;;;;;;;;617926;23;1328;-75
2023/04/19 01:37:54;;;;;;;9.20;8.30;;;;;;;;;;623513;23;1950;-75
2023/04/19 01:38:10;;;;;;;9.45;8.55;;;;;;;;;;618349;23;1580;-76
2023/04/19 01:38:25;;;;;;;9.57;8.67;;;;;;;;;;618050;23;1103;-75
2023/04/19 01:38:41;;;;;;;9.85;8.95;;;;;;;;;;619022;23;1280;-76
2023/04/19 01:38:57;;;;;;;9.85;8.95;;;;;;;;;;618487;23;1479;-76
2023/04/19 01:39:12;;;;;;;9.57;8.67;;;;;;;;;;620077;23;1185;-76
2023/04/19 01:39:28;;;;;;;9.68;8.77;;;;;;;;;;616048;23;1236;-76
2023/04/19 01:39:44;;;;;;;9.65;8.75;;;;;;;;;;615567;23;1269;-75
2023/04/19 01:39:59;;;;;;;10.07;9.07;;;;;;;;;;615289;23;1257;-76
2023/04/19 01:40:15;;;;;;;10.30;9.30;;;;;;;;;;615291;23;1343;-77
2023/04/19 01:40:31;;;;;;;9.85;8.90;;;;;;;;;;614832;23;1507;-75
2023/04/19 01:40:46;;;;;;;9.95;9.00;;;;;;;;;;614918;23;1392;-76
2023/04/19 01:41:02;;;;;;;10.30;9.30;;;;;;;;;;615841;23;1336;-75
2023/04/19 01:41:19;;;;;;;9.98;8.98;;;;;;;;;;619887;23;1276;-75
2023/04/19 01:41:35;;;;;;;9.70;8.80;;;;;;;;;;622385;23;1466;-75
2023/04/19 01:41:50;;;;;;;9.70;8.80;;;;;;;;;;622098;23;1131;-75
2023/04/19 01:42:06;;;;;;;9.70;8.80;;;;;;;;;;622016;23;1201;-75
2023/04/19 01:42:22;;;;;;;10.27;9.18;;;;;;;;;;621899;23;1659;-75
2023/04/19 01:42:37;;;;;;;10.27;9.17;;;;;;;;;;621911;23;840;-76
2023/04/19 01:42:53;;;;;;;9.88;8.95;;;;;;;;;;617180;23;1393;-76
2023/04/19 01:43:12;;;;;;;10.45;9.45;;;;;;;;;;621085;23;1559;-75
2023/04/19 01:43:27;;;;;;;10.50;9.40;;;;;;;;;;618406;23;1298;-75
2023/04/19 01:43:43;;;;;;;10.13;9.13;;;;;;;;;;622097;23;1341;-75
2023/04/19 01:43:59;;;;;;;10.50;9.50;;;;;;;;;;625661;23;1337;-76
2023/04/19 01:44:15;;;;;;;10.35;9.35;;;;;;;;;;622072;23;1194;-76
2023/04/19 01:44:31;;;;;;;10.48;9.48;;;;;;;;;;619241;23;1413;-76
2023/04/19 01:44:46;;;;;;;10.32;9.32;;;;;;;;;;619049;23;1205;-76